Time;durP1;ratioP1;P1;durP2;ratioP2;P2;SDS_P1;SDS_P2;PMS_P1;PMS_P2;Temp;Humidity;BMP_temperature;BMP_pressure;BME280_temperature;BME280_humidity;BME280_pressure;Samples;Min_cycle;Max_cycle;Signal;HPM_P1;HPM_P2
2022/03/04 00:01:17;;;;;;;20.15;16.98;;;;;;;;;;5035158;28;20087;-61
2022/03/04 00:03:43;;;;;;;19.17;14.30;;;;;;;;;;5035059;28;20137;-62
2022/03/04 00:06:08;;;;;;;18.58;13.80;;;;;;;;;;5035068;28;20040;-67
2022/03/04 00:08:34;;;;;;;18.30;13.52;;;;;;;;;;5035056;28;20385;-69
2022/03/04 00:10:59;;;;;;;19.05;13.68;;;;;;;;;;5017420;28;20025;-69
2022/03/04 00:13:25;;;;;;;20.80;15.25;;;;;;;;;;5035113;28;20485;-69
2022/03/04 00:15:50;;;;;;;21.08;15.50;;;;;;;;;;5034805;28;20132;-69
2022/03/04 00:18:16;;;;;;;18.55;14.82;;;;;;;;;;5034826;28;20068;-69
2022/03/04 00:20:41;;;;;;;17.20;14.23;;;;;;;;;;5034786;28;20061;-69
2022/03/04 00:23:08;;;;;;;19.80;14.32;;;;;;;;;;5017277;28;20136;-69
2022/03/04 00:25:34;;;;;;;18.52;13.23;;;;;;;;;;5016991;28;20033;-69
2022/03/04 00:28:00;;;;;;;18.02;13.25;;;;;;;;;;5034554;28;20034;-69
2022/03/04 00:30:26;;;;;;;20.20;14.52;;;;;;;;;;5016920;28;20021;-68
2022/03/04 00:32:52;;;;;;;18.98;15.10;;;;;;;;;;5034451;28;20045;-62
2022/03/04 00:35:18;;;;;;;19.48;15.15;;;;;;;;;;5034578;28;20033;-62
2022/03/04 00:37:43;;;;;;;16.27;13.15;;;;;;;;;;5034787;28;20047;-62
2022/03/04 00:40:10;;;;;;;18.00;14.18;;;;;;;;;;5034569;28;20033;-62
2022/03/04 00:42:36;;;;;;;17.92;13.68;;;;;;;;;;5016809;28;20042;-62
2022/03/04 00:45:02;;;;;;;18.02;13.85;;;;;;;;;;5034722;28;20026;-62
2022/03/04 00:47:28;;;;;;;17.52;13.50;;;;;;;;;;5034413;28;20037;-62
2022/03/04 00:49:54;;;;;;;19.83;14.27;;;;;;;;;;5034381;28;20025;-62
2022/03/04 00:52:19;;;;;;;17.15;14.20;;;;;;;;;;5034444;28;20432;-62
2022/03/04 00:54:45;;;;;;;18.02;12.98;;;;;;;;;;5034258;28;20087;-62
2022/03/04 00:57:10;;;;;;;18.17;13.48;;;;;;;;;;5016782;28;20060;-62
2022/03/04 00:59:35;;;;;;;18.75;13.27;;;;;;;;;;5034120;28;20507;-63
2022/03/04 01:02:01;;;;;;;16.23;13.30;;;;;;;;;;5034198;28;20038;-64
2022/03/04 01:04:27;;;;;;;16.90;12.68;;;;;;;;;;5016439;28;20405;-63
2022/03/04 01:06:52;;;;;;;16.55;13.50;;;;;;;;;;5015769;28;20088;-62
2022/03/04 01:09:17;;;;;;;16.17;12.70;;;;;;;;;;5033708;28;20108;-62
2022/03/04 01:11:43;;;;;;;15.45;12.65;;;;;;;;;;5033808;28;20042;-62
2022/03/04 01:14:09;;;;;;;15.02;12.63;;;;;;;;;;5016229;28;20088;-62
2022/03/04 01:16:34;;;;;;;15.07;12.40;;;;;;;;;;5033767;28;20033;-62
2022/03/04 01:19:00;;;;;;;15.52;12.20;;;;;;;;;;5033742;28;20091;-63
2022/03/04 01:21:26;;;;;;;16.40;12.98;;;;;;;;;;5033829;28;20131;-62
2022/03/04 01:23:52;;;;;;;16.88;12.63;;;;;;;;;;5016141;28;20056;-63
2022/03/04 01:26:17;;;;;;;16.23;12.38;;;;;;;;;;5033831;28;20043;-62
2022/03/04 01:28:43;;;;;;;17.58;13.20;;;;;;;;;;5033815;28;20021;-62
2022/03/04 01:31:12;;;;;;;16.75;12.15;;;;;;;;;;5033490;28;20069;-62
2022/03/04 01:33:38;;;;;;;15.75;12.15;;;;;;;;;;5033247;28;20039;-62
2022/03/04 01:36:03;;;;;;;16.42;12.77;;;;;;;;;;5034109;28;20132;-61
2022/03/04 01:38:29;;;;;;;15.75;12.45;;;;;;;;;;5033572;28;20114;-62
2022/03/04 01:40:55;;;;;;;16.02;12.13;;;;;;;;;;5015937;28;20033;-62
2022/03/04 01:43:20;;;;;;;16.08;12.30;;;;;;;;;;5033584;28;20478;-63
2022/03/04 01:45:46;;;;;;;15.68;12.07;;;;;;;;;;5033805;28;20077;-62
2022/03/04 01:48:12;;;;;;;16.92;11.95;;;;;;;;;;5033750;28;20025;-63
2022/03/04 01:50:37;;;;;;;16.48;12.20;;;;;;;;;;5015771;28;20064;-62
2022/03/04 01:53:04;;;;;;;18.13;12.57;;;;;;;;;;5015611;28;20056;-62
2022/03/04 01:55:29;;;;;;;16.52;11.95;;;;;;;;;;5033212;28;20041;-62
2022/03/04 01:57:55;;;;;;;15.60;11.40;;;;;;;;;;5015708;28;20040;-63
2022/03/04 02:00:20;;;;;;;15.73;11.85;;;;;;;;;;5033681;28;20107;-62
2022/03/04 02:02:46;;;;;;;15.63;12.30;;;;;;;;;;5033342;28;20535;-62
2022/03/04 02:05:12;;;;;;;18.67;13.15;;;;;;;;;;5033245;28;20068;-62
2022/03/04 02:07:38;;;;;;;17.13;12.60;;;;;;;;;;5015744;28;20025;-62
2022/03/04 02:10:04;;;;;;;15.85;11.85;;;;;;;;;;5033401;28;20079;-69
2022/03/04 02:12:29;;;;;;;19.42;13.43;;;;;;;;;;5015669;28;20362;-68
2022/03/04 02:14:54;;;;;;;16.33;13.18;;;;;;;;;;5015425;28;20258;-68
2022/03/04 02:17:20;;;;;;;19.08;13.52;;;;;;;;;;5033010;28;20033;-69
2022/03/04 02:19:50;;;;;;;18.15;12.52;;;;;;;;;;5017955;28;20045;-68
2022/03/04 02:22:16;;;;;;;18.85;12.88;;;;;;;;;;5037234;28;20048;-69
2022/03/04 02:24:41;;;;;;;18.45;13.25;;;;;;;;;;5037146;28;20390;-69
2022/03/04 02:27:08;;;;;;;19.45;13.32;;;;;;;;;;5036794;28;20105;-62
2022/03/04 02:29:34;;;;;;;19.77;13.15;;;;;;;;;;5036920;28;20442;-62
2022/03/04 02:32:00;;;;;;;20.02;13.63;;;;;;;;;;5018448;28;20113;-62
2022/03/04 02:34:26;;;;;;;20.10;13.55;;;;;;;;;;5037423;28;20061;-62
2022/03/04 02:36:51;;;;;;;19.02;14.05;;;;;;;;;;5036891;28;20385;-62
2022/03/04 02:39:16;;;;;;;21.98;14.15;;;;;;;;;;5036811;28;20041;-62
2022/03/04 02:41:43;;;;;;;19.13;13.70;;;;;;;;;;5036922;28;20021;-62
2022/03/04 02:44:10;;;;;;;21.35;13.73;;;;;;;;;;5036522;28;20044;-69
2022/03/04 02:46:35;;;;;;;18.60;13.38;;;;;;;;;;5036596;28;20502;-69
2022/03/04 02:49:01;;;;;;;20.42;13.55;;;;;;;;;;5036534;28;20132;-69
2022/03/04 02:51:27;;;;;;;21.90;14.70;;;;;;;;;;5036796;28;20030;-69
2022/03/04 02:53:52;;;;;;;17.90;13.52;;;;;;;;;;5036794;28;20061;-70
2022/03/04 02:56:18;;;;;;;20.08;13.38;;;;;;;;;;5019158;28;20346;-63
2022/03/04 02:58:44;;;;;;;19.17;13.52;;;;;;;;;;5036619;28;20559;-63
2022/03/04 03:01:09;;;;;;;20.00;13.90;;;;;;;;;;5036634;28;20018;-62
2022/03/04 03:03:35;;;;;;;20.00;13.70;;;;;;;;;;5036503;28;20056;-62
2022/03/04 03:06:00;;;;;;;20.63;14.02;;;;;;;;;;5036215;28;20033;-62
2022/03/04 03:08:26;;;;;;;19.60;14.20;;;;;;;;;;5036220;28;20048;-62
2022/03/04 03:10:51;;;;;;;23.90;15.10;;;;;;;;;;5036389;28;20029;-62
2022/03/04 03:13:17;;;;;;;21.63;14.55;;;;;;;;;;5036136;28;20033;-62
2022/03/04 03:15:42;;;;;;;24.08;14.93;;;;;;;;;;5036234;28;20060;-62
2022/03/04 03:18:08;;;;;;;25.38;15.82;;;;;;;;;;5018651;28;20084;-62
2022/03/04 03:20:33;;;;;;;22.60;15.25;;;;;;;;;;5036006;28;20029;-62
2022/03/04 03:22:59;;;;;;;24.05;15.77;;;;;;;;;;5035822;28;20485;-62
2022/03/04 03:25:24;;;;;;;24.50;16.20;;;;;;;;;;5036029;28;20040;-62
2022/03/04 03:27:50;;;;;;;24.33;15.95;;;;;;;;;;5035737;28;20030;-62
2022/03/04 03:30:16;;;;;;;22.38;15.35;;;;;;;;;;5034924;28;20469;-62
2022/03/04 03:32:41;;;;;;;22.38;15.63;;;;;;;;;;5035415;28;20497;-62
2022/03/04 03:35:08;;;;;;;25.13;15.77;;;;;;;;;;5036050;28;20551;-63
2022/03/04 03:37:34;;;;;;;22.13;16.40;;;;;;;;;;5018429;28;20037;-62
2022/03/04 03:40:00;;;;;;;24.27;17.30;;;;;;;;;;5035471;28;20025;-62
2022/03/04 03:42:25;;;;;;;24.42;16.60;;;;;;;;;;5035580;28;20482;-63
2022/03/04 03:44:51;;;;;;;23.33;15.48;;;;;;;;;;5017878;28;20034;-63
2022/03/04 03:47:17;;;;;;;25.60;18.08;;;;;;;;;;5035481;28;20041;-69
2022/03/04 03:49:42;;;;;;;24.48;17.75;;;;;;;;;;5035399;28;20026;-69
2022/03/04 03:52:08;;;;;;;24.98;17.23;;;;;;;;;;5017762;28;20493;-69
2022/03/04 03:54:33;;;;;;;24.80;17.98;;;;;;;;;;5035318;28;20041;-63
2022/03/04 03:56:59;;;;;;;25.00;17.95;;;;;;;;;;5035293;28;20042;-62
2022/03/04 03:59:24;;;;;;;27.42;17.98;;;;;;;;;;5035211;28;20044;-62
2022/03/04 04:01:50;;;;;;;25.77;17.63;;;;;;;;;;5035429;28;20129;-62
2022/03/04 04:04:17;;;;;;;28.10;18.70;;;;;;;;;;5035310;28;20040;-63
2022/03/04 04:06:43;;;;;;;27.25;18.00;;;;;;;;;;5017419;28;20061;-63
2022/03/04 04:09:09;;;;;;;29.50;19.00;;;;;;;;;;5034972;28;20072;-62
2022/03/04 04:11:35;;;;;;;26.45;18.38;;;;;;;;;;5035163;28;20033;-67
2022/03/04 04:14:04;;;;;;;29.92;19.42;;;;;;;;;;5034745;28;20103;-69
2022/03/04 04:16:30;;;;;;;26.83;18.88;;;;;;;;;;5017183;28;20065;-69
2022/03/04 04:18:56;;;;;;;27.52;18.70;;;;;;;;;;5035237;28;20060;-69
2022/03/04 04:21:22;;;;;;;28.20;17.73;;;;;;;;;;5034890;28;20037;-69
2022/03/04 04:23:47;;;;;;;26.80;18.08;;;;;;;;;;5035089;28;20075;-61
2022/03/04 04:26:13;;;;;;;28.30;18.70;;;;;;;;;;5035030;28;20068;-61
2022/03/04 04:28:39;;;;;;;29.98;19.92;;;;;;;;;;5034660;28;20116;-61
2022/03/04 04:31:05;;;;;;;27.05;18.02;;;;;;;;;;5034286;28;20036;-62
2022/03/04 04:33:31;;;;;;;28.88;19.15;;;;;;;;;;5034930;28;20393;-62
2022/03/04 04:35:57;;;;;;;29.67;19.35;;;;;;;;;;5016756;28;20172;-62
2022/03/04 04:38:22;;;;;;;31.23;19.77;;;;;;;;;;5034576;28;20072;-63
2022/03/04 04:40:48;;;;;;;29.05;20.13;;;;;;;;;;5034583;28;20038;-63
2022/03/04 04:43:14;;;;;;;29.70;19.20;;;;;;;;;;5016879;28;20033;-63
2022/03/04 04:45:39;;;;;;;29.80;20.00;;;;;;;;;;5034279;28;20037;-62
2022/03/04 04:48:05;;;;;;;29.75;19.75;;;;;;;;;;5017023;28;20034;-62
2022/03/04 04:50:30;;;;;;;31.45;20.38;;;;;;;;;;5034409;28;20485;-62
2022/03/04 04:52:56;;;;;;;28.30;18.98;;;;;;;;;;5034547;28;20430;-62
2022/03/04 04:55:21;;;;;;;29.80;20.27;;;;;;;;;;5034406;28;20041;-62
2022/03/04 04:57:48;;;;;;;28.17;19.42;;;;;;;;;;5034346;28;20049;-63
2022/03/04 05:00:50;;;;;;;29.00;21.02;;;;;;;;;;5034056;28;20531;-63
2022/03/04 05:03:48;;;;;;;30.48;20.20;;;;;;;;;;5034085;28;20052;-62
2022/03/04 05:06:13;;;;;;;28.67;19.95;;;;;;;;;;5033946;28;20385;-62
2022/03/04 05:08:39;;;;;;;29.05;20.08;;;;;;;;;;5015790;28;20035;-62
2022/03/04 05:11:04;;;;;;;31.42;19.85;;;;;;;;;;5016384;28;20025;-62
2022/03/04 05:13:30;;;;;;;29.23;20.38;;;;;;;;;;5033427;28;20056;-62
2022/03/04 05:15:55;;;;;;;33.10;20.83;;;;;;;;;;5034084;28;20041;-62
2022/03/04 05:18:21;;;;;;;31.20;20.55;;;;;;;;;;5033791;28;20469;-62
2022/03/04 05:20:46;;;;;;;30.73;19.83;;;;;;;;;;5033904;28;20033;-63
2022/03/04 05:23:58;;;;;;;32.55;20.33;;;;;;;;;;5033851;28;20060;-62
2022/03/04 05:25:57;;;;;;;31.67;20.73;;;;;;;;;;5033577;28;20041;-62
2022/03/04 05:28:22;;;;;;;31.58;21.17;;;;;;;;;;5033605;28;20025;-62
2022/03/04 05:30:48;;;;;;;31.38;20.67;;;;;;;;;;5033605;28;20068;-62
2022/03/04 05:33:13;;;;;;;33.58;21.05;;;;;;;;;;5033467;28;20080;-62
2022/03/04 05:35:39;;;;;;;30.13;20.13;;;;;;;;;;5033615;28;20026;-62
2022/03/04 05:38:04;;;;;;;31.10;20.48;;;;;;;;;;5033025;28;20394;-62
2022/03/04 05:40:30;;;;;;;33.63;20.80;;;;;;;;;;5033421;28;20035;-62
2022/03/04 05:42:55;;;;;;;32.38;21.13;;;;;;;;;;5015707;28;20048;-62
2022/03/04 05:45:21;;;;;;;35.53;22.35;;;;;;;;;;5033685;28;20045;-62
2022/03/04 05:47:46;;;;;;;36.72;21.85;;;;;;;;;;5032729;28;20030;-61
2022/03/04 05:50:13;;;;;;;36.00;22.23;;;;;;;;;;5015516;28;20113;-62
2022/03/04 05:52:38;;;;;;;35.75;21.38;;;;;;;;;;5032588;28;20040;-61
2022/03/04 05:55:04;;;;;;;36.55;22.38;;;;;;;;;;5032710;28;20481;-62
2022/03/04 05:57:29;;;;;;;37.88;22.60;;;;;;;;;;5033071;28;20040;-62
2022/03/04 05:59:55;;;;;;;38.05;22.40;;;;;;;;;;5015461;28;20037;-62
2022/03/04 06:02:21;;;;;;;39.75;23.05;;;;;;;;;;5032947;28;20112;-62
2022/03/04 06:04:46;;;;;;;39.47;22.88;;;;;;;;;;5032978;28;20135;-62
2022/03/04 06:07:12;;;;;;;35.80;22.65;;;;;;;;;;5033043;28;20053;-62
2022/03/04 06:09:37;;;;;;;40.63;23.40;;;;;;;;;;5032248;28;20456;-62
2022/03/04 06:12:03;;;;;;;38.85;23.60;;;;;;;;;;5032805;28;20116;-62
2022/03/04 06:14:28;;;;;;;39.88;23.08;;;;;;;;;;5033088;28;20045;-62
2022/03/04 06:16:53;;;;;;;41.75;24.58;;;;;;;;;;5032903;28;20120;-62
2022/03/04 06:19:20;;;;;;;39.08;23.70;;;;;;;;;;5032898;28;20511;-61
2022/03/04 06:21:46;;;;;;;40.33;23.63;;;;;;;;;;5033062;28;20038;-62
2022/03/04 06:24:11;;;;;;;43.22;25.30;;;;;;;;;;5033284;28;20037;-62
2022/03/04 06:26:38;;;;;;;40.13;24.23;;;;;;;;;;5033171;28;20421;-63
2022/03/04 06:29:03;;;;;;;36.83;22.95;;;;;;;;;;5032830;28;20037;-62
2022/03/04 06:31:28;;;;;;;43.70;24.63;;;;;;;;;;5032338;28;20520;-62
2022/03/04 06:33:54;;;;;;;44.88;25.42;;;;;;;;;;5015304;28;20038;-62
2022/03/04 06:36:20;;;;;;;42.42;24.75;;;;;;;;;;5015334;28;20037;-63
2022/03/04 06:38:45;;;;;;;41.95;24.90;;;;;;;;;;5033021;28;20521;-63
2022/03/04 06:44:46;;;;;;;45.10;25.92;;;;;;;;;;5033262;28;20079;-63
2022/03/04 06:50:47;;;;;;;43.45;26.10;;;;;;;;;;5033335;28;20039;-63
2022/03/04 06:56:48;;;;;;;41.25;25.15;;;;;;;;;;5033338;28;20167;-63
2022/03/04 07:02:48;;;;;;;47.95;27.02;;;;;;;;;;5033401;28;20032;-63
2022/03/04 07:08:49;;;;;;;44.90;25.48;;;;;;;;;;5036623;28;20029;-63
2022/03/04 07:14:51;;;;;;;47.45;26.67;;;;;;;;;;5036710;28;20059;-63
2022/03/04 07:20:52;;;;;;;49.25;27.30;;;;;;;;;;5036625;28;20511;-63
2022/03/04 07:26:53;;;;;;;58.33;29.25;;;;;;;;;;5036648;28;20100;-63
2022/03/04 07:36:41;;;;;;;54.15;29.08;;;;;;;;;;5036085;28;20079;-70
2022/03/04 07:42:42;;;;;;;56.17;30.02;;;;;;;;;;5036203;28;20493;-70
2022/03/04 07:48:42;;;;;;;67.53;36.08;;;;;;;;;;5036047;28;20056;-70
2022/03/04 07:54:43;;;;;;;57.78;30.27;;;;;;;;;;5035740;28;20036;-70
2022/03/04 08:00:44;;;;;;;48.17;27.08;;;;;;;;;;5035612;28;20060;-70
2022/03/04 08:06:45;;;;;;;68.55;34.08;;;;;;;;;;5035874;28;20493;-70
2022/03/04 13:11:46;;;;;;;32.15;23.23;;;;;;;;;;5018086;28;20122;-72
2022/03/04 13:14:12;;;;;;;25.25;14.13;;;;;;;;;;5036084;28;20446;-72
2022/03/04 13:16:44;;;;;;;22.70;15.13;;;;;;;;;;5053776;28;20539;-72
2022/03/04 13:19:17;;;;;;;21.70;15.20;;;;;;;;;;5053578;28;20048;-72
2022/03/04 13:22:03;;;;;;;21.88;15.15;;;;;;;;;;5053709;28;20071;-73
2022/03/04 13:24:33;;;;;;;22.45;13.30;;;;;;;;;;5053101;28;20401;-72
2022/03/04 13:27:00;;;;;;;22.38;13.77;;;;;;;;;;5053854;28;20115;-72
2022/03/04 13:29:36;;;;;;;18.83;13.13;;;;;;;;;;5053707;28;20017;-72
2022/03/04 13:32:08;;;;;;;18.13;11.98;;;;;;;;;;5035452;28;20056;-67
2022/03/04 13:34:33;;;;;;;20.83;13.88;;;;;;;;;;5035592;28;20037;-67
2022/03/04 13:37:00;;;;;;;18.92;11.60;;;;;;;;;;5035551;28;20370;-67
2022/03/04 13:39:26;;;;;;;21.63;14.18;;;;;;;;;;5035757;28;20381;-67
2022/03/04 13:42:10;;;;;;;17.85;11.90;;;;;;;;;;5035468;28;20044;-67
2022/03/04 13:44:46;;;;;;;22.15;13.30;;;;;;;;;;5035686;28;20045;-67
2022/03/04 13:47:13;;;;;;;25.75;16.30;;;;;;;;;;5053577;28;20463;-67
2022/03/04 13:49:49;;;;;;;24.58;15.50;;;;;;;;;;5035584;28;20021;-67
2022/03/04 13:52:15;;;;;;;45.92;20.45;;;;;;;;;;5053416;28;20033;-67
2022/03/04 13:55:00;;;;;;;29.17;17.15;;;;;;;;;;5035615;28;20040;-68
2022/03/04 13:57:26;;;;;;;23.55;13.75;;;;;;;;;;5035770;28;20077;-67
2022/03/04 13:59:57;;;;;;;24.73;15.70;;;;;;;;;;5053169;28;20534;-68
2022/03/04 14:02:23;;;;;;;29.77;16.55;;;;;;;;;;5053070;28;20401;-68
2022/03/04 14:04:53;;;;;;;38.85;18.75;;;;;;;;;;5053173;28;20036;-66
2022/03/04 14:07:20;;;;;;;29.65;15.98;;;;;;;;;;5053237;28;20068;-68
2022/03/04 14:09:49;;;;;;;33.83;23.65;;;;;;;;;;5035536;28;20025;-68
2022/03/04 14:12:15;;;;;;;30.80;19.50;;;;;;;;;;5052626;28;20037;-68
2022/03/04 14:14:40;;;;;;;59.05;28.95;;;;;;;;;;5054067;28;20044;-70
2022/03/04 14:17:07;;;;;;;44.53;20.95;;;;;;;;;;5057373;28;20048;-68
2022/03/04 14:19:34;;;;;;;36.20;19.00;;;;;;;;;;5039233;28;20029;-68
2022/03/04 14:21:59;;;;;;;61.20;33.00;;;;;;;;;;5057446;28;20040;-68
2022/03/04 14:24:24;;;;;;;35.03;19.42;;;;;;;;;;5057083;28;20484;-68
2022/03/04 14:26:50;;;;;;;43.58;24.25;;;;;;;;;;5039232;28;20037;-68
2022/03/04 14:29:20;;;;;;;31.10;18.02;;;;;;;;;;5057903;28;20067;-68
2022/03/04 14:31:46;;;;;;;28.52;16.15;;;;;;;;;;5056428;28;20041;-68
2022/03/04 14:34:12;;;;;;;32.53;19.13;;;;;;;;;;5056256;28;20519;-68
2022/03/04 14:36:38;;;;;;;33.45;19.88;;;;;;;;;;5057014;28;20048;-68
2022/03/04 14:39:04;;;;;;;35.05;19.02;;;;;;;;;;5022495;28;20078;-68
2022/03/04 14:41:30;;;;;;;41.13;23.08;;;;;;;;;;5056415;28;20056;-68
2022/03/04 14:43:55;;;;;;;35.75;20.15;;;;;;;;;;5056365;28;20025;-68
2022/03/04 14:46:25;;;;;;;42.47;25.48;;;;;;;;;;5056996;28;20045;-68
2022/03/04 14:48:53;;;;;;;31.20;18.65;;;;;;;;;;5056890;28;20033;-70
2022/03/04 14:54:54;;;;;;;31.65;18.55;;;;;;;;;;5056832;28;20031;-70
2022/03/04 15:00:54;;;;;;;35.17;19.25;;;;;;;;;;5056985;28;20410;-70
2022/03/04 15:06:55;;;;;;;45.70;21.65;;;;;;;;;;5056784;28;20450;-69
2022/03/04 15:16:31;;;;;;;42.47;21.73;;;;;;;;;;5056665;28;20105;-69
2022/03/04 15:22:33;;;;;;;41.42;23.33;;;;;;;;;;5056830;28;20031;-69
2022/03/04 15:32:10;;;;;;;54.90;28.55;;;;;;;;;;5056160;28;20098;-70
2022/03/04 15:38:11;;;;;;;43.25;25.33;;;;;;;;;;5056026;28;20439;-70
2022/03/04 15:44:12;;;;;;;43.72;26.85;;;;;;;;;;5056169;28;20079;-70
2022/03/04 15:50:13;;;;;;;43.35;27.40;;;;;;;;;;5056072;28;20040;-70
2022/03/04 15:56:14;;;;;;;48.78;26.42;;;;;;;;;;5055965;28;20028;-69
2022/03/04 16:02:15;;;;;;;48.58;29.33;;;;;;;;;;5055860;28;20032;-69
2022/03/04 16:08:16;;;;;;;69.18;34.38;;;;;;;;;;5055689;28;20056;-69
2022/03/04 16:18:04;;;;;;;54.00;29.52;;;;;;;;;;5055525;28;20039;-75
2022/03/04 16:27:43;;;;;;;73.75;35.47;;;;;;;;;;5055340;28;20136;-74
2022/03/04 16:33:44;;;;;;;52.05;29.60;;;;;;;;;;5055259;28;20024;-70
2022/03/04 16:39:45;;;;;;;51.50;29.90;;;;;;;;;;5054895;28;20112;-69
2022/03/04 16:45:46;;;;;;;45.83;27.35;;;;;;;;;;5054804;28;20036;-68
2022/03/04 16:51:46;;;;;;;50.47;28.75;;;;;;;;;;5054904;28;20112;-74
2022/03/04 16:57:46;;;;;;;45.40;26.80;;;;;;;;;;5054765;28;20036;-74
2022/03/04 17:03:46;;;;;;;50.90;29.38;;;;;;;;;;5054650;28;20082;-74
2022/03/04 17:09:47;;;;;;;52.25;30.55;;;;;;;;;;5054527;28;20028;-75
2022/03/04 17:15:49;;;;;;;54.90;31.65;;;;;;;;;;5045133;28;20479;-75
2022/03/04 17:18:17;;;;;;;56.33;30.90;;;;;;;;;;5034791;28;20493;-75
2022/03/04 17:20:43;;;;;;;53.70;29.63;;;;;;;;;;5052474;28;20037;-75
2022/03/04 17:23:09;;;;;;;54.47;30.58;;;;;;;;;;5053284;28;20052;-75
2022/03/04 17:25:35;;;;;;;50.92;30.50;;;;;;;;;;5035612;28;20028;-75
2022/03/04 17:28:02;;;;;;;51.35;29.73;;;;;;;;;;5053641;28;20081;-74
2022/03/04 17:30:28;;;;;;;56.17;32.08;;;;;;;;;;5053415;28;20132;-74
2022/03/04 17:32:54;;;;;;;54.03;30.48;;;;;;;;;;5053236;28;20040;-65
2022/03/04 17:35:19;;;;;;;55.25;32.08;;;;;;;;;;5053523;28;20025;-65
2022/03/04 17:37:45;;;;;;;58.78;31.92;;;;;;;;;;5053280;28;20045;-75
2022/03/04 17:40:10;;;;;;;59.58;33.30;;;;;;;;;;5035243;28;20029;-64
2022/03/04 17:42:36;;;;;;;52.75;31.40;;;;;;;;;;5053307;28;20557;-66
2022/03/04 17:45:02;;;;;;;51.30;31.00;;;;;;;;;;5053227;28;20025;-65
2022/03/04 17:47:28;;;;;;;55.20;30.73;;;;;;;;;;5053037;28;20039;-65
2022/03/04 17:49:53;;;;;;;48.55;29.15;;;;;;;;;;5052780;28;20392;-66
2022/03/04 17:52:19;;;;;;;45.33;26.33;;;;;;;;;;5053143;28;20029;-65
2022/03/04 17:54:45;;;;;;;46.75;28.38;;;;;;;;;;5053077;28;20028;-64
2022/03/04 17:57:11;;;;;;;42.38;27.42;;;;;;;;;;5035225;28;20044;-65
2022/03/04 17:59:38;;;;;;;45.67;28.25;;;;;;;;;;5053045;28;20412;-66
2022/03/04 18:02:04;;;;;;;37.83;22.98;;;;;;;;;;5035326;28;20041;-66
2022/03/04 18:04:29;;;;;;;36.35;22.90;;;;;;;;;;5053368;28;20028;-65
2022/03/04 18:06:55;;;;;;;50.40;31.20;;;;;;;;;;5053117;28;20071;-70
2022/03/04 18:09:20;;;;;;;34.00;21.35;;;;;;;;;;5035508;28;20036;-66
2022/03/04 18:11:46;;;;;;;37.53;23.20;;;;;;;;;;5053127;28;20037;-66
2022/03/04 18:14:11;;;;;;;45.08;26.45;;;;;;;;;;5052803;28;20036;-66
2022/03/04 18:16:37;;;;;;;38.88;23.90;;;;;;;;;;5052732;28;20076;-66
2022/03/04 18:19:03;;;;;;;39.42;24.45;;;;;;;;;;5052739;28;20416;-65
2022/03/04 18:21:28;;;;;;;36.92;22.38;;;;;;;;;;5052666;28;20037;-70
2022/03/04 18:23:54;;;;;;;33.10;20.58;;;;;;;;;;5052978;28;20035;-64
2022/03/04 18:26:19;;;;;;;36.65;20.63;;;;;;;;;;5052715;28;20033;-68
2022/03/04 18:28:45;;;;;;;39.35;22.63;;;;;;;;;;5052837;28;20106;-65
2022/03/04 18:31:10;;;;;;;37.00;21.67;;;;;;;;;;5052900;28;20033;-65
2022/03/04 18:33:36;;;;;;;47.58;25.80;;;;;;;;;;5052995;28;20074;-66
2022/03/04 18:36:02;;;;;;;44.72;25.52;;;;;;;;;;5053042;28;20548;-64
2022/03/04 18:41:12;;;;;;;35.00;22.05;;;;;;;;;;5052745;28;20044;-64
2022/03/04 18:43:37;;;;;;;34.22;20.08;;;;;;;;;;5052806;28;20391;-66
2022/03/04 18:46:03;;;;;;;36.55;22.48;;;;;;;;;;5052827;28;20079;-64
2022/03/04 18:48:28;;;;;;;32.55;21.42;;;;;;;;;;5053017;28;20357;-64
2022/03/04 18:50:55;;;;;;;35.00;21.48;;;;;;;;;;5052730;28;20056;-64
2022/03/04 18:53:20;;;;;;;30.88;20.13;;;;;;;;;;5052393;28;20060;-65
2022/03/04 18:55:46;;;;;;;32.25;19.95;;;;;;;;;;5052632;28;20414;-62
2022/03/04 18:58:12;;;;;;;33.90;21.58;;;;;;;;;;5052547;28;20040;-62
2022/03/04 19:00:38;;;;;;;42.88;25.17;;;;;;;;;;5053293;28;20071;-63
2022/03/04 19:03:05;;;;;;;35.45;20.60;;;;;;;;;;5056371;28;20461;-63
2022/03/04 19:05:31;;;;;;;30.10;19.10;;;;;;;;;;5056519;28;20034;-63
2022/03/04 19:07:57;;;;;;;38.75;23.20;;;;;;;;;;5056643;28;20039;-63
2022/03/04 19:10:23;;;;;;;55.85;32.53;;;;;;;;;;5056332;28;20088;-63
2022/03/04 19:12:48;;;;;;;68.70;38.03;;;;;;;;;;5056328;28;20040;-63
2022/03/04 19:15:18;;;;;;;81.38;43.42;;;;;;;;;;5055877;28;20124;-63
2022/03/04 19:17:45;;;;;;;64.07;37.53;;;;;;;;;;5056331;28;20033;-63
2022/03/04 19:20:11;;;;;;;48.42;30.50;;;;;;;;;;5055898;28;20099;-63
2022/03/04 19:22:37;;;;;;;44.25;26.77;;;;;;;;;;5055981;28;20048;-63
2022/03/04 19:25:05;;;;;;;38.55;25.70;;;;;;;;;;5056152;28;20044;-63
2022/03/04 19:27:30;;;;;;;59.58;34.17;;;;;;;;;;5055833;28;20061;-63
2022/03/04 19:29:56;;;;;;;38.67;23.63;;;;;;;;;;5055880;28;20461;-63
2022/03/04 19:32:21;;;;;;;61.83;36.95;;;;;;;;;;5055910;28;20041;-63
2022/03/04 19:34:47;;;;;;;50.95;31.42;;;;;;;;;;5055792;28;20562;-62
2022/03/04 19:37:12;;;;;;;54.92;33.35;;;;;;;;;;5055880;28;20029;-62
2022/03/04 19:39:38;;;;;;;39.67;25.75;;;;;;;;;;5055669;28;20056;-62
2022/03/04 19:42:04;;;;;;;47.97;25.42;;;;;;;;;;5055694;28;20044;-63
2022/03/04 19:44:29;;;;;;;52.40;27.20;;;;;;;;;;5055559;28;20028;-62
2022/03/04 19:46:55;;;;;;;38.17;22.48;;;;;;;;;;5055450;28;20041;-64
2022/03/04 19:49:25;;;;;;;32.63;20.63;;;;;;;;;;5037645;28;20033;-65
2022/03/04 19:51:51;;;;;;;27.90;19.15;;;;;;;;;;5037604;28;20041;-66
2022/03/04 19:54:16;;;;;;;30.15;17.88;;;;;;;;;;5055053;28;20025;-65
2022/03/04 19:56:42;;;;;;;32.70;19.58;;;;;;;;;;5055192;28;20039;-66
2022/03/04 19:59:07;;;;;;;31.30;19.30;;;;;;;;;;5055115;28;20461;-66
2022/03/04 20:01:33;;;;;;;36.03;22.25;;;;;;;;;;5055012;28;20041;-66
2022/03/04 20:03:59;;;;;;;67.30;37.78;;;;;;;;;;5055000;28;20037;-66
2022/03/04 20:06:24;;;;;;;50.50;30.17;;;;;;;;;;5054839;28;20029;-66
2022/03/04 20:08:50;;;;;;;110.70;65.03;;;;;;;;;;5054975;28;20026;-66
2022/03/04 20:11:16;;;;;;;92.30;51.75;;;;;;;;;;5054402;28;20120;-64
2022/03/04 20:13:41;;;;;;;73.97;43.45;;;;;;;;;;5053890;28;20057;-64
2022/03/04 20:16:09;;;;;;;49.88;29.00;;;;;;;;;;5054822;28;20095;-66
2022/03/04 20:18:34;;;;;;;31.60;19.70;;;;;;;;;;5054949;28;20393;-64
2022/03/04 20:21:00;;;;;;;36.22;21.25;;;;;;;;;;5054881;28;20543;-64
2022/03/04 20:23:26;;;;;;;38.30;26.77;;;;;;;;;;5055012;28;20029;-67
2022/03/04 20:25:53;;;;;;;53.85;32.45;;;;;;;;;;5055068;28;20069;-70
2022/03/04 20:28:18;;;;;;;58.10;36.50;;;;;;;;;;5054747;28;20020;-64
2022/03/04 20:30:44;;;;;;;83.13;40.42;;;;;;;;;;5054576;28;20048;-64
2022/03/04 20:33:09;;;;;;;58.45;30.13;;;;;;;;;;5054717;28;20029;-64
2022/03/04 20:35:38;;;;;;;49.47;25.70;;;;;;;;;;5054925;28;20078;-63
2022/03/04 20:38:03;;;;;;;62.03;37.03;;;;;;;;;;5055543;28;20037;-61
2022/03/04 20:40:30;;;;;;;50.25;27.55;;;;;;;;;;5036214;28;20044;-61
2022/03/04 20:42:55;;;;;;;50.72;25.85;;;;;;;;;;5054715;28;20033;-61
2022/03/04 20:45:21;;;;;;;93.40;43.40;;;;;;;;;;5054931;28;20037;-61
2022/03/04 20:47:47;;;;;;;88.50;39.97;;;;;;;;;;5054746;28;20491;-62
2022/03/04 20:50:12;;;;;;;89.95;42.15;;;;;;;;;;5054827;28;20029;-62
2022/03/04 20:52:41;;;;;;;65.60;28.75;;;;;;;;;;5054497;28;20017;-71
2022/03/04 20:55:08;;;;;;;50.85;24.80;;;;;;;;;;5019795;28;20049;-69
2022/03/04 20:57:33;;;;;;;68.13;33.05;;;;;;;;;;5054376;28;20412;-61
2022/03/04 20:59:59;;;;;;;83.60;36.05;;;;;;;;;;5036241;28;20469;-62
2022/03/04 21:02:24;;;;;;;47.03;26.33;;;;;;;;;;5054007;28;20112;-61
2022/03/04 21:04:50;;;;;;;50.30;27.27;;;;;;;;;;5036176;28;20428;-61
2022/03/04 21:07:15;;;;;;;34.38;20.42;;;;;;;;;;5053959;28;20393;-61
2022/03/04 21:09:42;;;;;;;32.30;21.17;;;;;;;;;;5054157;28;20067;-61
2022/03/04 21:12:07;;;;;;;50.53;28.98;;;;;;;;;;5036153;28;20054;-68
2022/03/04 21:14:33;;;;;;;42.08;24.20;;;;;;;;;;5053837;28;20029;-61
2022/03/04 21:16:58;;;;;;;79.47;40.13;;;;;;;;;;5053937;28;20043;-69
2022/03/04 21:19:24;;;;;;;56.58;31.77;;;;;;;;;;5054003;28;20033;-67
2022/03/04 21:21:50;;;;;;;91.22;39.92;;;;;;;;;;5053822;28;20025;-67
2022/03/04 21:24:15;;;;;;;70.40;33.60;;;;;;;;;;5053623;28;20106;-68
2022/03/04 21:26:41;;;;;;;80.10;41.25;;;;;;;;;;5054167;28;20071;-61
2022/03/04 21:29:07;;;;;;;52.10;32.88;;;;;;;;;;5035623;28;20040;-61
2022/03/04 21:31:33;;;;;;;39.63;26.00;;;;;;;;;;5053696;28;20022;-68
2022/03/04 21:33:59;;;;;;;51.35;28.88;;;;;;;;;;5053470;28;20044;-61
2022/03/04 21:36:24;;;;;;;52.30;35.28;;;;;;;;;;5035688;28;20079;-61
2022/03/04 21:38:50;;;;;;;61.53;41.53;;;;;;;;;;5035608;28;20428;-67
2022/03/04 21:41:16;;;;;;;41.40;27.10;;;;;;;;;;5053508;28;20033;-61
2022/03/04 21:43:42;;;;;;;31.88;23.40;;;;;;;;;;5053698;28;20033;-61